sensor_id;sensor_type;location;lat;lon;timestamp;P1;durP1;ratioP1;P2;durP2;ratioP2
13455;SDS011;6800;50.940;6.940;2022-07-09T00:03:27;7.85;;;5.90;;
13455;SDS011;6800;50.940;6.940;2022-07-09T00:07:27;8.23;;;4.38;;
13455;SDS011;6800;50.940;6.940;2022-07-09T00:11:27;6.68;;;4.50;;
13455;SDS011;6800;50.940;6.940;2022-07-09T00:15:28;7.32;;;4.00;;
13455;SDS011;6800;50.940;6.940;2022-07-09T00:19:28;6.32;;;5.10;;
13455;SDS011;6800;50.940;6.940;2022-07-09T00:23:28;9.35;;;4.68;;
13455;SDS011;6800;50.940;6.940;2022-07-09T00:27:29;8.68;;;6.20;;
13455;SDS011;6800;50.940;6.940;2022-07-09T00:31:29;13.07;;;10.77;;
13455;SDS011;6800;50.940;6.940;2022-07-09T00:35:30;27.88;;;25.13;;
13455;SDS011;6800;50.940;6.940;2022-07-09T00:39:30;11.02;;;6.70;;
13455;SDS011;6800;50.940;6.940;2022-07-09T00:43:30;5.28;;;4.78;;
13455;SDS011;6800;50.940;6.940;2022-07-09T00:47:31;8.45;;;4.40;;
13455;SDS011;6800;50.940;6.940;2022-07-09T00:51:31;8.95;;;5.88;;
13455;SDS011;6800;50.940;6.940;2022-07-09T00:55:32;9.05;;;5.38;;
13455;SDS011;6800;50.940;6.940;2022-07-09T00:59:33;5.50;;;4.53;;
13455;SDS011;6800;50.940;6.940;2022-07-09T01:03:35;10.32;;;7.43;;
13455;SDS011;6800;50.940;6.940;2022-07-09T01:07:35;11.25;;;8.88;;
13455;SDS011;6800;50.940;6.940;2022-07-09T01:11:36;11.43;;;10.30;;
13455;SDS011;6800;50.940;6.940;2022-07-09T01:15:37;7.43;;;5.38;;
13455;SDS011;6800;50.940;6.940;2022-07-09T01:19:37;5.55;;;4.15;;
13455;SDS011;6800;50.940;6.940;2022-07-09T01:23:37;7.00;;;3.90;;
13455;SDS011;6800;50.940;6.940;2022-07-09T01:27:39;7.75;;;3.80;;
13455;SDS011;6800;50.940;6.940;2022-07-09T01:31:39;5.63;;;3.90;;
13455;SDS011;6800;50.940;6.940;2022-07-09T01:35:39;6.15;;;3.85;;
13455;SDS011;6800;50.940;6.940;2022-07-09T01:39:39;6.47;;;4.10;;
13455;SDS011;6800;50.940;6.940;2022-07-09T01:43:49;6.55;;;3.63;;
13455;SDS011;6800;50.940;6.940;2022-07-09T01:47:50;7.75;;;4.07;;
13455;SDS011;6800;50.940;6.940;2022-07-09T01:51:50;5.43;;;4.03;;
13455;SDS011;6800;50.940;6.940;2022-07-09T01:55:51;8.10;;;4.32;;
13455;SDS011;6800;50.940;6.940;2022-07-09T01:59:51;8.00;;;5.50;;
13455;SDS011;6800;50.940;6.940;2022-07-09T02:03:52;5.63;;;4.28;;
13455;SDS011;6800;50.940;6.940;2022-07-09T02:07:52;8.20;;;4.32;;
13455;SDS011;6800;50.940;6.940;2022-07-09T02:11:52;9.90;;;5.30;;
13455;SDS011;6800;50.940;6.940;2022-07-09T02:15:53;11.88;;;4.80;;
13455;SDS011;6800;50.940;6.940;2022-07-09T02:19:54;5.95;;;4.07;;
13455;SDS011;6800;50.940;6.940;2022-07-09T02:23:54;6.47;;;5.00;;
13455;SDS011;6800;50.940;6.940;2022-07-09T02:27:58;8.93;;;4.82;;
13455;SDS011;6800;50.940;6.940;2022-07-09T02:31:58;10.10;;;4.45;;
13455;SDS011;6800;50.940;6.940;2022-07-09T02:35:59;7.75;;;4.78;;
13455;SDS011;6800;50.940;6.940;2022-07-09T02:39:59;7.88;;;4.25;;
13455;SDS011;6800;50.940;6.940;2022-07-09T02:43:59;10.40;;;4.83;;
13455;SDS011;6800;50.940;6.940;2022-07-09T02:48:00;7.28;;;4.15;;
13455;SDS011;6800;50.940;6.940;2022-07-09T02:52:00;7.25;;;4.00;;
13455;SDS011;6800;50.940;6.940;2022-07-09T02:56:01;6.50;;;4.40;;
13455;SDS011;6800;50.940;6.940;2022-07-09T03:00:02;10.65;;;4.40;;
13455;SDS011;6800;50.940;6.940;2022-07-09T03:04:03;7.47;;;4.38;;
13455;SDS011;6800;50.940;6.940;2022-07-09T03:08:04;10.75;;;4.50;;
13455;SDS011;6800;50.940;6.940;2022-07-09T03:12:05;6.18;;;4.40;;
13455;SDS011;6800;50.940;6.940;2022-07-09T03:16:06;9.52;;;5.88;;
13455;SDS011;6800;50.940;6.940;2022-07-09T03:20:07;8.40;;;5.00;;
13455;SDS011;6800;50.940;6.940;2022-07-09T03:24:07;7.15;;;4.65;;
13455;SDS011;6800;50.940;6.940;2022-07-09T03:28:09;9.48;;;4.35;;
13455;SDS011;6800;50.940;6.940;2022-07-09T03:32:10;7.78;;;4.47;;
13455;SDS011;6800;50.940;6.940;2022-07-09T03:36:10;10.00;;;4.70;;
13455;SDS011;6800;50.940;6.940;2022-07-09T03:40:11;8.05;;;4.10;;
13455;SDS011;6800;50.940;6.940;2022-07-09T03:44:11;8.60;;;4.15;;
13455;SDS011;6800;50.940;6.940;2022-07-09T03:48:11;7.65;;;4.47;;
13455;SDS011;6800;50.940;6.940;2022-07-09T03:52:12;11.43;;;4.70;;
13455;SDS011;6800;50.940;6.940;2022-07-09T03:56:13;9.18;;;4.97;;
13455;SDS011;6800;50.940;6.940;2022-07-09T04:00:13;8.05;;;4.63;;
13455;SDS011;6800;50.940;6.940;2022-07-09T04:04:14;6.35;;;3.90;;
13455;SDS011;6800;50.940;6.940;2022-07-09T04:08:14;7.13;;;5.00;;
13455;SDS011;6800;50.940;6.940;2022-07-09T04:12:15;10.30;;;4.78;;
13455;SDS011;6800;50.940;6.940;2022-07-09T04:16:15;5.63;;;4.95;;
13455;SDS011;6800;50.940;6.940;2022-07-09T04:20:15;7.28;;;5.00;;
13455;SDS011;6800;50.940;6.940;2022-07-09T04:24:16;7.55;;;5.30;;
13455;SDS011;6800;50.940;6.940;2022-07-09T04:28:16;6.82;;;5.00;;
13455;SDS011;6800;50.940;6.940;2022-07-09T04:32:21;8.75;;;5.32;;
13455;SDS011;6800;50.940;6.940;2022-07-09T04:36:21;9.50;;;5.47;;
13455;SDS011;6800;50.940;6.940;2022-07-09T04:40:22;9.15;;;6.43;;
13455;SDS011;6800;50.940;6.940;2022-07-09T04:44:22;9.05;;;6.93;;
13455;SDS011;6800;50.940;6.940;2022-07-09T04:48:22;14.75;;;7.13;;
13455;SDS011;6800;50.940;6.940;2022-07-09T04:52:23;10.15;;;7.75;;
13455;SDS011;6800;50.940;6.940;2022-07-09T04:56:26;7.68;;;6.95;;
13455;SDS011;6800;50.940;6.940;2022-07-09T05:00:27;12.98;;;7.35;;
13455;SDS011;6800;50.940;6.940;2022-07-09T05:04:27;11.07;;;8.00;;
13455;SDS011;6800;50.940;6.940;2022-07-09T05:08:27;13.65;;;7.85;;
13455;SDS011;6800;50.940;6.940;2022-07-09T05:12:29;9.85;;;7.57;;
13455;SDS011;6800;50.940;6.940;2022-07-09T05:16:30;10.65;;;7.93;;
13455;SDS011;6800;50.940;6.940;2022-07-09T05:20:30;8.63;;;7.28;;
13455;SDS011;6800;50.940;6.940;2022-07-09T05:24:30;12.45;;;7.55;;
13455;SDS011;6800;50.940;6.940;2022-07-09T05:28:31;16.63;;;8.68;;
13455;SDS011;6800;50.940;6.940;2022-07-09T05:32:31;19.90;;;8.88;;
13455;SDS011;6800;50.940;6.940;2022-07-09T05:36:32;11.63;;;7.40;;
13455;SDS011;6800;50.940;6.940;2022-07-09T05:40:32;9.00;;;6.75;;
13455;SDS011;6800;50.940;6.940;2022-07-09T05:44:32;9.30;;;6.35;;
13455;SDS011;6800;50.940;6.940;2022-07-09T05:48:33;9.60;;;7.75;;
13455;SDS011;6800;50.940;6.940;2022-07-09T05:52:33;9.65;;;7.93;;
13455;SDS011;6800;50.940;6.940;2022-07-09T05:56:33;8.50;;;7.70;;
13455;SDS011;6800;50.940;6.940;2022-07-09T06:00:36;8.63;;;7.13;;
13455;SDS011;6800;50.940;6.940;2022-07-09T06:04:36;7.80;;;5.72;;
13455;SDS011;6800;50.940;6.940;2022-07-09T06:08:37;8.30;;;6.97;;
13455;SDS011;6800;50.940;6.940;2022-07-09T06:12:38;9.43;;;7.30;;
13455;SDS011;6800;50.940;6.940;2022-07-09T06:16:38;7.65;;;6.95;;
13455;SDS011;6800;50.940;6.940;2022-07-09T06:20:39;7.57;;;6.67;;
13455;SDS011;6800;50.940;6.940;2022-07-09T06:24:39;7.95;;;7.10;;
13455;SDS011;6800;50.940;6.940;2022-07-09T06:28:39;7.90;;;6.70;;
13455;SDS011;6800;50.940;6.940;2022-07-09T06:32:40;8.55;;;6.60;;
13455;SDS011;6800;50.940;6.940;2022-07-09T06:36:40;8.93;;;5.63;;
13455;SDS011;6800;50.940;6.940;2022-07-09T06:40:44;9.18;;;5.03;;
13455;SDS011;6800;50.940;6.940;2022-07-09T06:44:44;5.63;;;4.28;;
13455;SDS011;6800;50.940;6.940;2022-07-09T06:48:45;4.78;;;3.65;;
13455;SDS011;6800;50.940;6.940;2022-07-09T06:52:45;5.38;;;2.88;;
13455;SDS011;6800;50.940;6.940;2022-07-09T06:56:46;6.40;;;3.83;;
13455;SDS011;6800;50.940;6.940;2022-07-09T07:00:46;4.40;;;2.40;;
13455;SDS011;6800;50.940;6.940;2022-07-09T07:04:47;3.00;;;1.97;;
13455;SDS011;6800;50.940;6.940;2022-07-09T07:08:47;3.93;;;1.80;;
13455;SDS011;6800;50.940;6.940;2022-07-09T07:12:47;3.97;;;2.63;;
13455;SDS011;6800;50.940;6.940;2022-07-09T07:16:48;3.10;;;2.10;;
13455;SDS011;6800;50.940;6.940;2022-07-09T07:20:48;2.92;;;2.60;;
13455;SDS011;6800;50.940;6.940;2022-07-09T07:24:48;4.10;;;3.10;;
13455;SDS011;6800;50.940;6.940;2022-07-09T07:28:48;5.60;;;3.97;;
13455;SDS011;6800;50.940;6.940;2022-07-09T07:32:49;5.43;;;4.53;;
13455;SDS011;6800;50.940;6.940;2022-07-09T07:36:50;6.10;;;4.60;;
13455;SDS011;6800;50.940;6.940;2022-07-09T07:40:51;8.65;;;4.80;;
13455;SDS011;6800;50.940;6.940;2022-07-09T07:44:51;6.83;;;5.63;;
13455;SDS011;6800;50.940;6.940;2022-07-09T07:48:52;6.87;;;5.57;;
13455;SDS011;6800;50.940;6.940;2022-07-09T07:52:52;7.53;;;6.10;;
13455;SDS011;6800;50.940;6.940;2022-07-09T07:56:52;8.98;;;6.32;;
13455;SDS011;6800;50.940;6.940;2022-07-09T08:00:53;7.13;;;5.82;;
13455;SDS011;6800;50.940;6.940;2022-07-09T08:04:53;11.75;;;7.35;;
13455;SDS011;6800;50.940;6.940;2022-07-09T08:08:53;7.00;;;5.68;;
13455;SDS011;6800;50.940;6.940;2022-07-09T08:12:54;5.33;;;4.57;;
13455;SDS011;6800;50.940;6.940;2022-07-09T08:16:54;8.18;;;5.57;;
13455;SDS011;6800;50.940;6.940;2022-07-09T08:20:55;6.07;;;4.20;;
13455;SDS011;6800;50.940;6.940;2022-07-09T08:24:55;4.70;;;2.20;;
13455;SDS011;6800;50.940;6.940;2022-07-09T08:28:55;4.17;;;2.03;;
13455;SDS011;6800;50.940;6.940;2022-07-09T08:32:56;4.07;;;2.60;;
13455;SDS011;6800;50.940;6.940;2022-07-09T08:36:57;2.40;;;1.67;;
13455;SDS011;6800;50.940;6.940;2022-07-09T08:40:58;2.22;;;1.33;;
13455;SDS011;6800;50.940;6.940;2022-07-09T08:45:00;3.78;;;1.20;;
13455;SDS011;6800;50.940;6.940;2022-07-09T08:49:01;1.58;;;1.33;;
13455;SDS011;6800;50.940;6.940;2022-07-09T08:53:03;1.77;;;1.15;;
13455;SDS011;6800;50.940;6.940;2022-07-09T08:57:05;2.88;;;1.52;;
13455;SDS011;6800;50.940;6.940;2022-07-09T09:01:05;2.13;;;1.30;;
13455;SDS011;6800;50.940;6.940;2022-07-09T09:05:07;2.00;;;1.17;;
13455;SDS011;6800;50.940;6.940;2022-07-09T09:09:18;2.80;;;1.30;;
13455;SDS011;6800;50.940;6.940;2022-07-09T09:13:19;3.63;;;1.30;;
13455;SDS011;6800;50.940;6.940;2022-07-09T09:17:19;2.10;;;1.00;;
13455;SDS011;6800;50.940;6.940;2022-07-09T09:21:20;1.83;;;1.17;;
13455;SDS011;6800;50.940;6.940;2022-07-09T09:25:22;1.77;;;1.30;;
13455;SDS011;6800;50.940;6.940;2022-07-09T09:29:23;1.48;;;0.95;;
13455;SDS011;6800;50.940;6.940;2022-07-09T09:33:23;1.03;;;0.93;;
13455;SDS011;6800;50.940;6.940;2022-07-09T09:37:29;1.52;;;0.88;;
13455;SDS011;6800;50.940;6.940;2022-07-09T09:41:30;2.42;;;1.10;;
13455;SDS011;6800;50.940;6.940;2022-07-09T09:45:32;1.80;;;0.90;;
13455;SDS011;6800;50.940;6.940;2022-07-09T09:49:34;2.22;;;1.35;;
13455;SDS011;6800;50.940;6.940;2022-07-09T09:53:41;2.72;;;0.95;;
13455;SDS011;6800;50.940;6.940;2022-07-09T09:57:42;1.10;;;0.80;;
13455;SDS011;6800;50.940;6.940;2022-07-09T10:01:42;1.42;;;0.85;;
13455;SDS011;6800;50.940;6.940;2022-07-09T10:05:44;1.48;;;0.90;;
13455;SDS011;6800;50.940;6.940;2022-07-09T10:09:54;1.90;;;0.80;;
13455;SDS011;6800;50.940;6.940;2022-07-09T10:13:56;1.88;;;1.08;;
13455;SDS011;6800;50.940;6.940;2022-07-09T10:17:56;1.67;;;1.02;;
13455;SDS011;6800;50.940;6.940;2022-07-09T10:21:57;2.30;;;1.15;;
13455;SDS011;6800;50.940;6.940;2022-07-09T10:25:58;1.20;;;0.75;;
13455;SDS011;6800;50.940;6.940;2022-07-09T10:29:59;1.40;;;0.63;;
13455;SDS011;6800;50.940;6.940;2022-07-09T10:34:01;3.17;;;0.95;;
13455;SDS011;6800;50.940;6.940;2022-07-09T10:38:07;2.05;;;1.20;;
13455;SDS011;6800;50.940;6.940;2022-07-09T10:42:17;1.58;;;1.00;;
13455;SDS011;6800;50.940;6.940;2022-07-09T10:46:19;1.75;;;1.10;;
13455;SDS011;6800;50.940;6.940;2022-07-09T10:50:19;3.47;;;0.90;;
13455;SDS011;6800;50.940;6.940;2022-07-09T10:54:20;1.88;;;0.95;;
13455;SDS011;6800;50.940;6.940;2022-07-09T10:58:23;2.60;;;0.82;;
13455;SDS011;6800;50.940;6.940;2022-07-09T11:02:24;1.65;;;1.13;;
13455;SDS011;6800;50.940;6.940;2022-07-09T11:06:25;1.42;;;0.80;;
13455;SDS011;6800;50.940;6.940;2022-07-09T11:10:25;2.28;;;1.30;;
13455;SDS011;6800;50.940;6.940;2022-07-09T11:14:27;2.75;;;0.93;;
13455;SDS011;6800;50.940;6.940;2022-07-09T11:18:28;1.25;;;0.70;;
13455;SDS011;6800;50.940;6.940;2022-07-09T11:22:29;4.03;;;0.98;;
13455;SDS011;6800;50.940;6.940;2022-07-09T11:26:29;1.07;;;0.77;;
13455;SDS011;6800;50.940;6.940;2022-07-09T11:30:30;3.10;;;0.80;;
13455;SDS011;6800;50.940;6.940;2022-07-09T11:34:32;1.95;;;1.10;;
13455;SDS011;6800;50.940;6.940;2022-07-09T11:38:32;3.08;;;1.10;;
13455;SDS011;6800;50.940;6.940;2022-07-09T11:42:40;1.35;;;0.68;;
13455;SDS011;6800;50.940;6.940;2022-07-09T11:46:41;4.28;;;1.00;;
13455;SDS011;6800;50.940;6.940;2022-07-09T11:50:42;1.45;;;1.10;;
13455;SDS011;6800;50.940;6.940;2022-07-09T11:54:57;2.28;;;1.40;;
13455;SDS011;6800;50.940;6.940;2022-07-09T11:58:58;2.65;;;1.42;;
13455;SDS011;6800;50.940;6.940;2022-07-09T12:02:59;2.97;;;1.67;;
13455;SDS011;6800;50.940;6.940;2022-07-09T12:07:00;3.03;;;1.30;;
13455;SDS011;6800;50.940;6.940;2022-07-09T12:11:00;4.40;;;1.80;;
13455;SDS011;6800;50.940;6.940;2022-07-09T12:15:01;1.70;;;1.40;;
13455;SDS011;6800;50.940;6.940;2022-07-09T12:19:02;2.45;;;1.52;;
13455;SDS011;6800;50.940;6.940;2022-07-09T12:23:03;2.13;;;1.30;;
13455;SDS011;6800;50.940;6.940;2022-07-09T12:27:04;3.45;;;1.90;;
13455;SDS011;6800;50.940;6.940;2022-07-09T12:31:04;2.65;;;2.05;;
13455;SDS011;6800;50.940;6.940;2022-07-09T12:35:05;3.78;;;2.33;;
13455;SDS011;6800;50.940;6.940;2022-07-09T12:39:06;2.83;;;2.00;;
13455;SDS011;6800;50.940;6.940;2022-07-09T12:43:06;2.78;;;2.08;;
13455;SDS011;6800;50.940;6.940;2022-07-09T12:47:06;3.03;;;2.20;;
13455;SDS011;6800;50.940;6.940;2022-07-09T12:51:07;2.20;;;1.90;;
13455;SDS011;6800;50.940;6.940;2022-07-09T12:55:07;2.53;;;2.17;;
13455;SDS011;6800;50.940;6.940;2022-07-09T12:59:08;3.90;;;2.00;;
13455;SDS011;6800;50.940;6.940;2022-07-09T13:03:08;3.25;;;2.22;;
13455;SDS011;6800;50.940;6.940;2022-07-09T13:07:09;2.40;;;2.13;;
13455;SDS011;6800;50.940;6.940;2022-07-09T13:11:10;4.47;;;2.67;;
13455;SDS011;6800;50.940;6.940;2022-07-09T13:15:10;6.15;;;3.90;;
13455;SDS011;6800;50.940;6.940;2022-07-09T13:19:11;9.90;;;4.10;;
13455;SDS011;6800;50.940;6.940;2022-07-09T13:23:11;4.93;;;4.43;;
13455;SDS011;6800;50.940;6.940;2022-07-09T13:27:11;5.87;;;4.77;;
13455;SDS011;6800;50.940;6.940;2022-07-09T13:31:12;6.03;;;4.85;;
13455;SDS011;6800;50.940;6.940;2022-07-09T13:35:13;6.60;;;4.75;;
13455;SDS011;6800;50.940;6.940;2022-07-09T13:39:15;6.00;;;4.95;;
13455;SDS011;6800;50.940;6.940;2022-07-09T13:43:15;6.63;;;5.80;;
13455;SDS011;6800;50.940;6.940;2022-07-09T13:47:15;7.25;;;6.32;;
13455;SDS011;6800;50.940;6.940;2022-07-09T13:51:16;7.10;;;6.20;;
13455;SDS011;6800;50.940;6.940;2022-07-09T13:55:16;6.85;;;6.00;;
13455;SDS011;6800;50.940;6.940;2022-07-09T13:59:18;7.40;;;6.72;;
13455;SDS011;6800;50.940;6.940;2022-07-09T14:03:18;7.85;;;6.65;;
13455;SDS011;6800;50.940;6.940;2022-07-09T14:07:18;8.20;;;7.40;;
13455;SDS011;6800;50.940;6.940;2022-07-09T14:11:19;7.80;;;7.10;;
13455;SDS011;6800;50.940;6.940;2022-07-09T14:15:19;7.32;;;6.65;;
13455;SDS011;6800;50.940;6.940;2022-07-09T14:19:19;7.55;;;6.60;;
13455;SDS011;6800;50.940;6.940;2022-07-09T14:23:20;7.80;;;7.07;;
13455;SDS011;6800;50.940;6.940;2022-07-09T14:27:20;9.40;;;7.28;;
13455;SDS011;6800;50.940;6.940;2022-07-09T14:31:22;9.25;;;8.15;;
13455;SDS011;6800;50.940;6.940;2022-07-09T14:35:22;8.98;;;8.07;;
13455;SDS011;6800;50.940;6.940;2022-07-09T14:39:22;9.63;;;8.70;;
13455;SDS011;6800;50.940;6.940;2022-07-09T14:43:23;9.45;;;8.32;;
13455;SDS011;6800;50.940;6.940;2022-07-09T14:47:23;7.15;;;6.43;;
13455;SDS011;6800;50.940;6.940;2022-07-09T14:51:26;6.28;;;5.47;;
13455;SDS011;6800;50.940;6.940;2022-07-09T14:55:27;6.72;;;5.30;;
13455;SDS011;6800;50.940;6.940;2022-07-09T14:59:28;6.53;;;5.07;;
13455;SDS011;6800;50.940;6.940;2022-07-09T15:03:28;7.72;;;4.97;;
13455;SDS011;6800;50.940;6.940;2022-07-09T15:07:29;5.60;;;4.88;;
13455;SDS011;6800;50.940;6.940;2022-07-09T15:11:29;6.07;;;4.65;;
13455;SDS011;6800;50.940;6.940;2022-07-09T15:15:29;5.72;;;4.28;;
13455;SDS011;6800;50.940;6.940;2022-07-09T15:19:29;7.05;;;3.97;;
13455;SDS011;6800;50.940;6.940;2022-07-09T15:23:30;5.68;;;4.20;;
13455;SDS011;6800;50.940;6.940;2022-07-09T15:27:31;6.65;;;4.22;;
13455;SDS011;6800;50.940;6.940;2022-07-09T15:35:41;2.92;;;2.40;;
13455;SDS011;6800;50.940;6.940;2022-07-09T15:39:42;4.35;;;1.80;;
13455;SDS011;6800;50.940;6.940;2022-07-09T15:43:42;3.05;;;1.80;;
13455;SDS011;6800;50.940;6.940;2022-07-09T15:47:43;4.40;;;1.60;;
13455;SDS011;6800;50.940;6.940;2022-07-09T15:51:44;2.75;;;1.50;;
13455;SDS011;6800;50.940;6.940;2022-07-09T15:55:47;2.13;;;1.70;;
13455;SDS011;6800;50.940;6.940;2022-07-09T15:59:47;1.30;;;1.15;;
13455;SDS011;6800;50.940;6.940;2022-07-09T16:03:47;2.85;;;1.27;;
13455;SDS011;6800;50.940;6.940;2022-07-09T16:07:48;1.25;;;1.15;;
13455;SDS011;6800;50.940;6.940;2022-07-09T16:11:48;1.50;;;1.20;;
13455;SDS011;6800;50.940;6.940;2022-07-09T16:16:07;4.57;;;1.55;;
13455;SDS011;6800;50.940;6.940;2022-07-09T16:20:07;4.80;;;1.35;;
13455;SDS011;6800;50.940;6.940;2022-07-09T16:24:08;5.13;;;1.60;;
13455;SDS011;6800;50.940;6.940;2022-07-09T16:28:08;1.50;;;1.30;;
13455;SDS011;6800;50.940;6.940;2022-07-09T16:32:09;3.00;;;1.40;;
13455;SDS011;6800;50.940;6.940;2022-07-09T16:36:10;2.72;;;1.10;;
13455;SDS011;6800;50.940;6.940;2022-07-09T16:40:10;1.63;;;0.90;;
13455;SDS011;6800;50.940;6.940;2022-07-09T16:44:11;2.38;;;1.40;;
13455;SDS011;6800;50.940;6.940;2022-07-09T16:48:11;1.83;;;1.30;;
13455;SDS011;6800;50.940;6.940;2022-07-09T16:52:12;4.20;;;1.80;;
13455;SDS011;6800;50.940;6.940;2022-07-09T16:56:12;2.40;;;1.10;;
13455;SDS011;6800;50.940;6.940;2022-07-09T17:00:12;2.08;;;1.40;;
13455;SDS011;6800;50.940;6.940;2022-07-09T17:04:12;2.63;;;1.60;;
13455;SDS011;6800;50.940;6.940;2022-07-09T17:08:16;2.13;;;1.63;;
13455;SDS011;6800;50.940;6.940;2022-07-09T17:12:16;2.97;;;1.20;;
13455;SDS011;6800;50.940;6.940;2022-07-09T17:16:17;2.50;;;1.10;;
13455;SDS011;6800;50.940;6.940;2022-07-09T17:20:17;2.40;;;1.27;;
13455;SDS011;6800;50.940;6.940;2022-07-09T17:24:17;2.70;;;1.23;;
13455;SDS011;6800;50.940;6.940;2022-07-09T17:28:17;4.70;;;1.40;;
13455;SDS011;6800;50.940;6.940;2022-07-09T17:32:18;2.13;;;1.42;;
13455;SDS011;6800;50.940;6.940;2022-07-09T17:36:18;3.22;;;1.20;;
13455;SDS011;6800;50.940;6.940;2022-07-09T17:40:19;1.90;;;1.15;;
13455;SDS011;6800;50.940;6.940;2022-07-09T17:44:20;3.97;;;1.10;;
13455;SDS011;6800;50.940;6.940;2022-07-09T17:48:20;5.07;;;1.75;;
13455;SDS011;6800;50.940;6.940;2022-07-09T17:52:20;5.85;;;2.95;;
13455;SDS011;6800;50.940;6.940;2022-07-09T17:56:21;3.80;;;1.40;;
13455;SDS011;6800;50.940;6.940;2022-07-09T18:00:25;2.40;;;1.30;;
13455;SDS011;6800;50.940;6.940;2022-07-09T18:04:30;4.78;;;1.45;;
13455;SDS011;6800;50.940;6.940;2022-07-09T18:08:30;2.35;;;1.13;;
13455;SDS011;6800;50.940;6.940;2022-07-09T18:12:30;4.72;;;1.17;;
13455;SDS011;6800;50.940;6.940;2022-07-09T18:16:31;3.20;;;1.58;;
13455;SDS011;6800;50.940;6.940;2022-07-09T18:20:31;4.38;;;1.60;;
13455;SDS011;6800;50.940;6.940;2022-07-09T18:24:32;2.63;;;1.17;;
13455;SDS011;6800;50.940;6.940;2022-07-09T18:28:32;2.05;;;1.02;;
13455;SDS011;6800;50.940;6.940;2022-07-09T18:32:32;3.05;;;1.58;;
13455;SDS011;6800;50.940;6.940;2022-07-09T18:36:32;2.60;;;1.30;;
13455;SDS011;6800;50.940;6.940;2022-07-09T18:40:33;2.85;;;1.10;;
13455;SDS011;6800;50.940;6.940;2022-07-09T18:44:33;3.50;;;1.20;;
13455;SDS011;6800;50.940;6.940;2022-07-09T18:48:36;4.95;;;1.58;;
13455;SDS011;6800;50.940;6.940;2022-07-09T18:52:36;2.13;;;1.50;;
13455;SDS011;6800;50.940;6.940;2022-07-09T18:56:37;3.63;;;2.00;;
13455;SDS011;6800;50.940;6.940;2022-07-09T19:00:38;3.22;;;1.45;;
13455;SDS011;6800;50.940;6.940;2022-07-09T19:04:39;5.75;;;2.00;;
13455;SDS011;6800;50.940;6.940;2022-07-09T19:08:39;4.50;;;2.13;;
13455;SDS011;6800;50.940;6.940;2022-07-09T19:12:39;2.87;;;1.50;;
13455;SDS011;6800;50.940;6.940;2022-07-09T19:16:40;4.00;;;1.60;;
13455;SDS011;6800;50.940;6.940;2022-07-09T19:20:40;6.40;;;1.48;;
13455;SDS011;6800;50.940;6.940;2022-07-09T19:24:40;5.28;;;1.83;;
13455;SDS011;6800;50.940;6.940;2022-07-09T19:28:41;5.28;;;1.50;;
13455;SDS011;6800;50.940;6.940;2022-07-09T19:32:42;4.75;;;1.70;;
13455;SDS011;6800;50.940;6.940;2022-07-09T19:37:01;5.72;;;2.25;;
13455;SDS011;6800;50.940;6.940;2022-07-09T19:41:02;4.47;;;1.98;;
13455;SDS011;6800;50.940;6.940;2022-07-09T19:45:02;5.88;;;1.70;;
13455;SDS011;6800;50.940;6.940;2022-07-09T19:49:04;4.05;;;1.90;;
13455;SDS011;6800;50.940;6.940;2022-07-09T19:53:05;4.00;;;1.50;;
13455;SDS011;6800;50.940;6.940;2022-07-09T19:57:05;5.13;;;1.50;;
13455;SDS011;6800;50.940;6.940;2022-07-09T20:01:05;3.83;;;1.40;;
13455;SDS011;6800;50.940;6.940;2022-07-09T20:05:06;3.05;;;1.52;;
13455;SDS011;6800;50.940;6.940;2022-07-09T20:09:07;4.32;;;1.65;;
13455;SDS011;6800;50.940;6.940;2022-07-09T20:13:07;5.38;;;1.85;;
13455;SDS011;6800;50.940;6.940;2022-07-09T20:17:08;3.92;;;1.60;;
13455;SDS011;6800;50.940;6.940;2022-07-09T20:21:09;3.17;;;1.58;;
13455;SDS011;6800;50.940;6.940;2022-07-09T20:25:10;4.60;;;1.85;;
13455;SDS011;6800;50.940;6.940;2022-07-09T20:29:10;4.32;;;1.45;;
13455;SDS011;6800;50.940;6.940;2022-07-09T20:33:10;4.72;;;1.90;;
13455;SDS011;6800;50.940;6.940;2022-07-09T20:37:13;5.55;;;1.65;;
13455;SDS011;6800;50.940;6.940;2022-07-09T20:41:13;3.05;;;1.67;;
13455;SDS011;6800;50.940;6.940;2022-07-09T20:45:13;3.30;;;1.73;;
13455;SDS011;6800;50.940;6.940;2022-07-09T20:49:14;3.15;;;1.60;;
13455;SDS011;6800;50.940;6.940;2022-07-09T20:53:14;4.85;;;1.80;;
13455;SDS011;6800;50.940;6.940;2022-07-09T20:57:14;4.72;;;1.70;;
13455;SDS011;6800;50.940;6.940;2022-07-09T21:01:15;3.80;;;1.92;;
13455;SDS011;6800;50.940;6.940;2022-07-09T21:05:15;3.88;;;2.20;;
13455;SDS011;6800;50.940;6.940;2022-07-09T21:09:15;4.93;;;1.88;;
13455;SDS011;6800;50.940;6.940;2022-07-09T21:13:15;4.18;;;1.95;;
13455;SDS011;6800;50.940;6.940;2022-07-09T21:17:16;5.32;;;2.13;;
13455;SDS011;6800;50.940;6.940;2022-07-09T21:21:35;4.35;;;2.00;;
13455;SDS011;6800;50.940;6.940;2022-07-09T21:25:35;3.85;;;2.15;;
13455;SDS011;6800;50.940;6.940;2022-07-09T21:29:35;4.72;;;2.33;;
13455;SDS011;6800;50.940;6.940;2022-07-09T21:33:36;8.07;;;2.92;;
13455;SDS011;6800;50.940;6.940;2022-07-09T21:37:36;6.23;;;2.40;;
13455;SDS011;6800;50.940;6.940;2022-07-09T21:41:37;5.33;;;2.40;;
13455;SDS011;6800;50.940;6.940;2022-07-09T21:45:37;5.83;;;2.90;;
13455;SDS011;6800;50.940;6.940;2022-07-09T21:49:37;7.13;;;3.50;;
13455;SDS011;6800;50.940;6.940;2022-07-09T21:53:38;4.57;;;2.80;;
13455;SDS011;6800;50.940;6.940;2022-07-09T21:57:38;4.90;;;2.30;;
13455;SDS011;6800;50.940;6.940;2022-07-09T22:01:38;3.10;;;1.70;;
13455;SDS011;6800;50.940;6.940;2022-07-09T22:05:38;9.17;;;2.73;;
13455;SDS011;6800;50.940;6.940;2022-07-09T22:09:39;8.03;;;2.47;;
13455;SDS011;6800;50.940;6.940;2022-07-09T22:13:39;4.97;;;2.40;;
13455;SDS011;6800;50.940;6.940;2022-07-09T22:17:43;3.97;;;1.90;;
13455;SDS011;6800;50.940;6.940;2022-07-09T22:21:43;6.63;;;2.50;;
13455;SDS011;6800;50.940;6.940;2022-07-09T22:25:44;5.47;;;1.87;;
13455;SDS011;6800;50.940;6.940;2022-07-09T22:29:44;5.47;;;2.20;;
13455;SDS011;6800;50.940;6.940;2022-07-09T22:33:44;4.60;;;2.00;;
13455;SDS011;6800;50.940;6.940;2022-07-09T22:37:44;4.10;;;2.03;;
13455;SDS011;6800;50.940;6.940;2022-07-09T22:41:45;5.23;;;2.37;;
13455;SDS011;6800;50.940;6.940;2022-07-09T22:45:45;8.30;;;2.60;;
13455;SDS011;6800;50.940;6.940;2022-07-09T22:49:46;4.43;;;2.00;;
13455;SDS011;6800;50.940;6.940;2022-07-09T22:53:46;5.60;;;3.10;;
13455;SDS011;6800;50.940;6.940;2022-07-09T22:57:46;4.87;;;2.50;;
13455;SDS011;6800;50.940;6.940;2022-07-09T23:01:47;4.33;;;1.70;;
13455;SDS011;6800;50.940;6.940;2022-07-09T23:05:47;5.20;;;2.30;;
13455;SDS011;6800;50.940;6.940;2022-07-09T23:09:47;4.77;;;1.90;;
13455;SDS011;6800;50.940;6.940;2022-07-09T23:13:48;5.07;;;2.40;;
13455;SDS011;6800;50.940;6.940;2022-07-09T23:17:48;4.90;;;2.77;;
13455;SDS011;6800;50.940;6.940;2022-07-09T23:21:49;5.63;;;2.17;;
13455;SDS011;6800;50.940;6.940;2022-07-09T23:25:49;6.97;;;3.07;;
13455;SDS011;6800;50.940;6.940;2022-07-09T23:29:49;8.47;;;2.83;;
13455;SDS011;6800;50.940;6.940;2022-07-09T23:33:50;6.73;;;3.77;;
13455;SDS011;6800;50.940;6.940;2022-07-09T23:37:51;4.90;;;2.27;;
13455;SDS011;6800;50.940;6.940;2022-07-09T23:41:51;4.53;;;2.37;;
13455;SDS011;6800;50.940;6.940;2022-07-09T23:45:52;8.00;;;4.80;;
13455;SDS011;6800;50.940;6.940;2022-07-09T23:49:52;5.03;;;2.77;;
13455;SDS011;6800;50.940;6.940;2022-07-09T23:53:52;3.47;;;2.50;;
13455;SDS011;6800;50.940;6.940;2022-07-09T23:57:53;7.33;;;2.47;;
